sensor_id;sensor_type;location;lat;lon;timestamp;P1;durP1;ratioP1;P2;durP2;ratioP2
5416;SDS011;2731;50.754;12.990;2022-07-03T00:02:19;3.70;;;3.30;;
5416;SDS011;2731;50.754;12.990;2022-07-03T00:04:44;5.13;;;3.07;;
5416;SDS011;2731;50.754;12.990;2022-07-03T00:07:09;5.33;;;2.87;;
5416;SDS011;2731;50.754;12.990;2022-07-03T00:09:34;5.00;;;3.38;;
5416;SDS011;2731;50.754;12.990;2022-07-03T00:12:01;3.00;;;2.70;;
5416;SDS011;2731;50.754;12.990;2022-07-03T00:14:26;4.53;;;3.35;;
5416;SDS011;2731;50.754;12.990;2022-07-03T00:16:51;4.77;;;3.47;;
5416;SDS011;2731;50.754;12.990;2022-07-03T00:19:17;4.28;;;3.60;;
5416;SDS011;2731;50.754;12.990;2022-07-03T00:22:24;4.03;;;3.40;;
5416;SDS011;2731;50.754;12.990;2022-07-03T00:24:32;3.65;;;2.90;;
5416;SDS011;2731;50.754;12.990;2022-07-03T00:26:58;4.05;;;3.08;;
5416;SDS011;2731;50.754;12.990;2022-07-03T00:29:23;3.35;;;3.03;;
5416;SDS011;2731;50.754;12.990;2022-07-03T00:31:50;6.53;;;3.63;;
5416;SDS011;2731;50.754;12.990;2022-07-03T00:34:16;4.90;;;3.63;;
5416;SDS011;2731;50.754;12.990;2022-07-03T00:36:41;4.10;;;3.60;;
5416;SDS011;2731;50.754;12.990;2022-07-03T00:39:08;4.68;;;3.60;;
5416;SDS011;2731;50.754;12.990;2022-07-03T00:41:34;4.30;;;3.65;;
5416;SDS011;2731;50.754;12.990;2022-07-03T00:43:59;6.65;;;4.18;;
5416;SDS011;2731;50.754;12.990;2022-07-03T00:46:25;5.28;;;3.38;;
5416;SDS011;2731;50.754;12.990;2022-07-03T00:48:51;5.15;;;3.00;;
5416;SDS011;2731;50.754;12.990;2022-07-03T00:51:24;12.32;;;4.05;;
5416;SDS011;2731;50.754;12.990;2022-07-03T00:53:55;4.15;;;3.75;;
5416;SDS011;2731;50.754;12.990;2022-07-03T00:56:24;7.15;;;4.30;;
5416;SDS011;2731;50.754;12.990;2022-07-03T00:58:51;4.18;;;3.75;;
5416;SDS011;2731;50.754;12.990;2022-07-03T01:01:18;6.05;;;3.85;;
5416;SDS011;2731;50.754;12.990;2022-07-03T01:03:44;5.63;;;3.67;;
5416;SDS011;2731;50.754;12.990;2022-07-03T01:06:10;5.75;;;4.13;;
5416;SDS011;2731;50.754;12.990;2022-07-03T01:08:42;4.07;;;3.75;;
5416;SDS011;2731;50.754;12.990;2022-07-03T01:16:30;4.20;;;3.80;;
5416;SDS011;2731;50.754;12.990;2022-07-03T01:21:31;4.22;;;3.83;;
5416;SDS011;2731;50.754;12.990;2022-07-03T01:26:30;4.38;;;3.67;;
5416;SDS011;2731;50.754;12.990;2022-07-03T01:29:03;3.95;;;3.33;;
5416;SDS011;2731;50.754;12.990;2022-07-03T01:31:31;4.07;;;3.67;;
5416;SDS011;2731;50.754;12.990;2022-07-03T01:33:56;3.65;;;3.35;;
5416;SDS011;2731;50.754;12.990;2022-07-03T01:36:23;4.28;;;3.88;;
5416;SDS011;2731;50.754;12.990;2022-07-03T01:38:50;5.60;;;3.53;;
5416;SDS011;2731;50.754;12.990;2022-07-03T01:41:15;4.00;;;2.83;;
5416;SDS011;2731;50.754;12.990;2022-07-03T01:43:47;4.15;;;3.50;;
5416;SDS011;2731;50.754;12.990;2022-07-03T01:46:13;3.88;;;3.25;;
5416;SDS011;2731;50.754;12.990;2022-07-03T01:48:41;4.30;;;3.35;;
5416;SDS011;2731;50.754;12.990;2022-07-03T01:51:06;3.83;;;3.30;;
5416;SDS011;2731;50.754;12.990;2022-07-03T01:53:32;3.40;;;2.90;;
5416;SDS011;2731;50.754;12.990;2022-07-03T01:55:58;3.53;;;3.22;;
5416;SDS011;2731;50.754;12.990;2022-07-03T01:58:24;4.32;;;3.20;;
5416;SDS011;2731;50.754;12.990;2022-07-03T02:00:54;6.32;;;3.45;;
5416;SDS011;2731;50.754;12.990;2022-07-03T02:03:26;3.75;;;3.33;;
5416;SDS011;2731;50.754;12.990;2022-07-03T02:05:53;3.78;;;3.38;;
5416;SDS011;2731;50.754;12.990;2022-07-03T02:11:08;3.45;;;3.15;;
5416;SDS011;2731;50.754;12.990;2022-07-03T02:13:39;5.35;;;3.80;;
5416;SDS011;2731;50.754;12.990;2022-07-03T02:16:08;3.72;;;3.33;;
5416;SDS011;2731;50.754;12.990;2022-07-03T02:18:35;3.35;;;3.05;;
5416;SDS011;2731;50.754;12.990;2022-07-03T02:21:02;3.60;;;3.10;;
5416;SDS011;2731;50.754;12.990;2022-07-03T02:23:30;4.65;;;3.80;;
5416;SDS011;2731;50.754;12.990;2022-07-03T02:25:55;3.97;;;3.42;;
5416;SDS011;2731;50.754;12.990;2022-07-03T02:30:51;3.80;;;3.35;;
5416;SDS011;2731;50.754;12.990;2022-07-03T02:33:21;3.53;;;3.22;;
5416;SDS011;2731;50.754;12.990;2022-07-03T02:35:49;5.32;;;3.50;;
5416;SDS011;2731;50.754;12.990;2022-07-03T02:38:16;4.32;;;3.58;;
5416;SDS011;2731;50.754;12.990;2022-07-03T02:40:57;4.18;;;3.28;;
5416;SDS011;2731;50.754;12.990;2022-07-03T02:48:44;4.07;;;2.95;;
5416;SDS011;2731;50.754;12.990;2022-07-03T02:51:10;3.38;;;2.90;;
5416;SDS011;2731;50.754;12.990;2022-07-03T02:53:41;3.05;;;2.70;;
5416;SDS011;2731;50.754;12.990;2022-07-03T02:56:19;3.38;;;2.90;;
5416;SDS011;2731;50.754;12.990;2022-07-03T02:59:22;3.30;;;3.00;;
5416;SDS011;2731;50.754;12.990;2022-07-03T03:01:46;3.95;;;3.20;;
5416;SDS011;2731;50.754;12.990;2022-07-03T03:04:14;3.50;;;3.20;;
5416;SDS011;2731;50.754;12.990;2022-07-03T03:06:53;3.92;;;2.90;;
5416;SDS011;2731;50.754;12.990;2022-07-03T03:09:52;3.35;;;2.65;;
5416;SDS011;2731;50.754;12.990;2022-07-03T03:12:11;3.00;;;2.70;;
5416;SDS011;2731;50.754;12.990;2022-07-03T03:14:41;3.50;;;3.17;;
5416;SDS011;2731;50.754;12.990;2022-07-03T03:17:07;4.25;;;3.20;;
5416;SDS011;2731;50.754;12.990;2022-07-03T03:19:36;4.75;;;4.03;;
5416;SDS011;2731;50.754;12.990;2022-07-03T03:24:39;6.57;;;3.15;;
5416;SDS011;2731;50.754;12.990;2022-07-03T03:27:04;3.65;;;3.35;;
5416;SDS011;2731;50.754;12.990;2022-07-03T03:29:30;4.57;;;3.30;;
5416;SDS011;2731;50.754;12.990;2022-07-03T03:31:55;4.68;;;3.20;;
5416;SDS011;2731;50.754;12.990;2022-07-03T03:34:21;6.32;;;3.22;;
5416;SDS011;2731;50.754;12.990;2022-07-03T03:36:47;4.05;;;3.38;;
5416;SDS011;2731;50.754;12.990;2022-07-03T03:39:12;4.37;;;3.93;;
5416;SDS011;2731;50.754;12.990;2022-07-03T03:41:37;4.30;;;3.60;;
5416;SDS011;2731;50.754;12.990;2022-07-03T03:44:03;4.63;;;3.33;;
5416;SDS011;2731;50.754;12.990;2022-07-03T03:46:28;4.45;;;3.13;;
5416;SDS011;2731;50.754;12.990;2022-07-03T03:48:53;4.27;;;3.87;;
5416;SDS011;2731;50.754;12.990;2022-07-03T03:51:18;4.65;;;3.97;;
5416;SDS011;2731;50.754;12.990;2022-07-03T03:53:44;3.75;;;3.13;;
5416;SDS011;2731;50.754;12.990;2022-07-03T03:56:10;3.50;;;3.20;;
5416;SDS011;2731;50.754;12.990;2022-07-03T03:58:36;3.83;;;3.50;;
5416;SDS011;2731;50.754;12.990;2022-07-03T04:01:02;4.07;;;3.67;;
5416;SDS011;2731;50.754;12.990;2022-07-03T04:03:29;4.20;;;3.55;;
5416;SDS011;2731;50.754;12.990;2022-07-03T04:05:54;4.28;;;3.40;;
5416;SDS011;2731;50.754;12.990;2022-07-03T04:08:20;5.65;;;3.65;;
5416;SDS011;2731;50.754;12.990;2022-07-03T04:10:46;3.70;;;3.40;;
5416;SDS011;2731;50.754;12.990;2022-07-03T04:13:11;3.97;;;3.47;;
5416;SDS011;2731;50.754;12.990;2022-07-03T04:15:36;3.55;;;3.15;;
5416;SDS011;2731;50.754;12.990;2022-07-03T04:18:02;4.13;;;3.47;;
5416;SDS011;2731;50.754;12.990;2022-07-03T04:20:27;3.53;;;3.22;;
5416;SDS011;2731;50.754;12.990;2022-07-03T04:22:52;3.73;;;3.43;;
5416;SDS011;2731;50.754;12.990;2022-07-03T04:25:17;3.60;;;3.30;;
5416;SDS011;2731;50.754;12.990;2022-07-03T04:27:45;3.55;;;3.25;;
5416;SDS011;2731;50.754;12.990;2022-07-03T04:30:10;3.80;;;3.38;;
5416;SDS011;2731;50.754;12.990;2022-07-03T04:32:36;3.95;;;3.47;;
5416;SDS011;2731;50.754;12.990;2022-07-03T04:35:02;3.80;;;3.40;;
5416;SDS011;2731;50.754;12.990;2022-07-03T04:37:27;3.50;;;2.70;;
5416;SDS011;2731;50.754;12.990;2022-07-03T04:39:52;3.57;;;3.20;;
5416;SDS011;2731;50.754;12.990;2022-07-03T04:42:18;3.47;;;3.07;;
5416;SDS011;2731;50.754;12.990;2022-07-03T04:44:43;3.43;;;2.83;;
5416;SDS011;2731;50.754;12.990;2022-07-03T04:47:08;3.13;;;2.83;;
5416;SDS011;2731;50.754;12.990;2022-07-03T04:49:33;3.07;;;2.80;;
5416;SDS011;2731;50.754;12.990;2022-07-03T04:51:58;4.50;;;3.07;;
5416;SDS011;2731;50.754;12.990;2022-07-03T04:54:23;2.70;;;2.40;;
5416;SDS011;2731;50.754;12.990;2022-07-03T04:56:49;3.78;;;2.67;;
5416;SDS011;2731;50.754;12.990;2022-07-03T04:59:14;4.90;;;3.10;;
5416;SDS011;2731;50.754;12.990;2022-07-03T05:01:39;3.60;;;2.80;;
5416;SDS011;2731;50.754;12.990;2022-07-03T05:04:04;2.80;;;2.50;;
5416;SDS011;2731;50.754;12.990;2022-07-03T05:06:29;3.63;;;2.93;;
5416;SDS011;2731;50.754;12.990;2022-07-03T05:08:55;3.23;;;2.47;;
5416;SDS011;2731;50.754;12.990;2022-07-03T05:11:20;4.20;;;2.53;;
5416;SDS011;2731;50.754;12.990;2022-07-03T05:13:46;3.58;;;2.67;;
5416;SDS011;2731;50.754;12.990;2022-07-03T05:16:12;4.65;;;3.05;;
5416;SDS011;2731;50.754;12.990;2022-07-03T05:18:37;3.17;;;2.63;;
5416;SDS011;2731;50.754;12.990;2022-07-03T05:21:02;2.70;;;2.50;;
5416;SDS011;2731;50.754;12.990;2022-07-03T05:23:28;5.30;;;2.97;;
5416;SDS011;2731;50.754;12.990;2022-07-03T05:25:53;2.50;;;2.30;;
5416;SDS011;2731;50.754;12.990;2022-07-03T05:28:20;2.53;;;2.30;;
5416;SDS011;2731;50.754;12.990;2022-07-03T05:30:45;3.03;;;2.83;;
5416;SDS011;2731;50.754;12.990;2022-07-03T05:33:10;3.27;;;2.97;;
5416;SDS011;2731;50.754;12.990;2022-07-03T05:35:36;3.23;;;2.93;;
5416;SDS011;2731;50.754;12.990;2022-07-03T05:38:01;3.20;;;2.90;;
5416;SDS011;2731;50.754;12.990;2022-07-03T05:40:26;4.47;;;2.87;;
5416;SDS011;2731;50.754;12.990;2022-07-03T05:42:51;2.57;;;2.37;;
5416;SDS011;2731;50.754;12.990;2022-07-03T05:45:18;2.65;;;2.45;;
5416;SDS011;2731;50.754;12.990;2022-07-03T05:47:43;2.90;;;2.53;;
5416;SDS011;2731;50.754;12.990;2022-07-03T05:50:09;3.00;;;2.70;;
5416;SDS011;2731;50.754;12.990;2022-07-03T05:52:34;2.58;;;2.38;;
5416;SDS011;2731;50.754;12.990;2022-07-03T05:54:59;3.10;;;2.77;;
5416;SDS011;2731;50.754;12.990;2022-07-03T05:57:24;2.60;;;2.40;;
5416;SDS011;2731;50.754;12.990;2022-07-03T05:59:50;2.47;;;2.27;;
5416;SDS011;2731;50.754;12.990;2022-07-03T06:02:15;3.33;;;2.83;;
5416;SDS011;2731;50.754;12.990;2022-07-03T06:04:40;3.22;;;2.75;;
5416;SDS011;2731;50.754;12.990;2022-07-03T06:07:06;2.97;;;2.70;;
5416;SDS011;2731;50.754;12.990;2022-07-03T06:09:31;2.97;;;2.40;;
5416;SDS011;2731;50.754;12.990;2022-07-03T06:11:56;2.60;;;2.40;;
5416;SDS011;2731;50.754;12.990;2022-07-03T06:14:22;2.50;;;2.30;;
5416;SDS011;2731;50.754;12.990;2022-07-03T06:16:47;2.70;;;2.38;;
5416;SDS011;2731;50.754;12.990;2022-07-03T06:19:12;2.40;;;2.20;;
5416;SDS011;2731;50.754;12.990;2022-07-03T06:21:37;2.20;;;2.03;;
5416;SDS011;2731;50.754;12.990;2022-07-03T06:24:03;2.30;;;2.10;;
5416;SDS011;2731;50.754;12.990;2022-07-03T06:26:28;2.67;;;2.45;;
5416;SDS011;2731;50.754;12.990;2022-07-03T06:28:54;2.53;;;2.33;;
5416;SDS011;2731;50.754;12.990;2022-07-03T06:31:19;2.88;;;2.55;;
5416;SDS011;2731;50.754;12.990;2022-07-03T06:33:44;2.97;;;2.67;;
5416;SDS011;2731;50.754;12.990;2022-07-03T06:36:10;3.73;;;2.30;;
5416;SDS011;2731;50.754;12.990;2022-07-03T06:38:35;3.70;;;2.28;;
5416;SDS011;2731;50.754;12.990;2022-07-03T06:41:02;2.85;;;2.50;;
5416;SDS011;2731;50.754;12.990;2022-07-03T06:43:27;2.40;;;2.20;;
5416;SDS011;2731;50.754;12.990;2022-07-03T06:45:53;9.13;;;2.40;;
5416;SDS011;2731;50.754;12.990;2022-07-03T06:48:18;2.33;;;2.13;;
5416;SDS011;2731;50.754;12.990;2022-07-03T06:50:45;2.47;;;2.20;;
5416;SDS011;2731;50.754;12.990;2022-07-03T06:53:10;2.38;;;2.03;;
5416;SDS011;2731;50.754;12.990;2022-07-03T06:55:35;2.30;;;2.10;;
5416;SDS011;2731;50.754;12.990;2022-07-03T06:58:01;4.13;;;1.93;;
5416;SDS011;2731;50.754;12.990;2022-07-03T07:00:26;2.15;;;1.95;;
5416;SDS011;2731;50.754;12.990;2022-07-03T07:02:51;3.33;;;2.20;;
5416;SDS011;2731;50.754;12.990;2022-07-03T07:05:17;2.83;;;2.20;;
5416;SDS011;2731;50.754;12.990;2022-07-03T07:07:42;2.60;;;2.40;;
5416;SDS011;2731;50.754;12.990;2022-07-03T07:10:07;3.47;;;1.80;;
5416;SDS011;2731;50.754;12.990;2022-07-03T07:12:33;3.28;;;2.10;;
5416;SDS011;2731;50.754;12.990;2022-07-03T07:14:58;4.25;;;2.13;;
5416;SDS011;2731;50.754;12.990;2022-07-03T07:17:23;2.90;;;1.90;;
5416;SDS011;2731;50.754;12.990;2022-07-03T07:19:49;2.00;;;1.80;;
5416;SDS011;2731;50.754;12.990;2022-07-03T07:22:14;2.67;;;1.93;;
5416;SDS011;2731;50.754;12.990;2022-07-03T07:24:39;2.23;;;1.93;;
5416;SDS011;2731;50.754;12.990;2022-07-03T07:27:04;2.30;;;2.10;;
5416;SDS011;2731;50.754;12.990;2022-07-03T07:29:29;2.38;;;1.80;;
5416;SDS011;2731;50.754;12.990;2022-07-03T07:31:55;3.13;;;1.77;;
5416;SDS011;2731;50.754;12.990;2022-07-03T07:34:20;3.08;;;1.90;;
5416;SDS011;2731;50.754;12.990;2022-07-03T07:36:45;2.75;;;2.20;;
5416;SDS011;2731;50.754;12.990;2022-07-03T07:39:11;3.33;;;1.87;;
5416;SDS011;2731;50.754;12.990;2022-07-03T07:41:39;2.20;;;2.00;;
5416;SDS011;2731;50.754;12.990;2022-07-03T07:44:04;2.57;;;2.10;;
5416;SDS011;2731;50.754;12.990;2022-07-03T07:46:30;2.55;;;1.88;;
5416;SDS011;2731;50.754;12.990;2022-07-03T07:48:55;3.22;;;2.13;;
5416;SDS011;2731;50.754;12.990;2022-07-03T07:51:22;1.70;;;1.60;;
5416;SDS011;2731;50.754;12.990;2022-07-03T07:53:47;1.55;;;1.42;;
5416;SDS011;2731;50.754;12.990;2022-07-03T07:56:12;2.92;;;1.45;;
5416;SDS011;2731;50.754;12.990;2022-07-03T07:58:37;1.63;;;1.40;;
5416;SDS011;2731;50.754;12.990;2022-07-03T08:01:03;1.67;;;1.30;;
5416;SDS011;2731;50.754;12.990;2022-07-03T08:03:47;1.55;;;1.40;;
5416;SDS011;2731;50.754;12.990;2022-07-03T08:06:30;2.70;;;1.60;;
5416;SDS011;2731;50.754;12.990;2022-07-03T08:08:56;3.20;;;1.70;;
5416;SDS011;2731;50.754;12.990;2022-07-03T08:11:24;1.92;;;1.60;;
5416;SDS011;2731;50.754;12.990;2022-07-03T08:13:50;1.75;;;1.65;;
5416;SDS011;2731;50.754;12.990;2022-07-03T08:16:15;2.47;;;1.63;;
5416;SDS011;2731;50.754;12.990;2022-07-03T08:18:42;1.80;;;1.63;;
5416;SDS011;2731;50.754;12.990;2022-07-03T08:21:07;2.10;;;1.25;;
5416;SDS011;2731;50.754;12.990;2022-07-03T08:23:32;1.47;;;1.37;;
5416;SDS011;2731;50.754;12.990;2022-07-03T08:25:58;1.77;;;1.30;;
5416;SDS011;2731;50.754;12.990;2022-07-03T08:28:23;1.92;;;1.48;;
5416;SDS011;2731;50.754;12.990;2022-07-03T08:30:48;1.40;;;1.30;;
5416;SDS011;2731;50.754;12.990;2022-07-03T08:33:14;1.35;;;1.25;;
5416;SDS011;2731;50.754;12.990;2022-07-03T08:35:39;1.45;;;1.35;;
5416;SDS011;2731;50.754;12.990;2022-07-03T08:38:04;2.27;;;1.53;;
5416;SDS011;2731;50.754;12.990;2022-07-03T08:40:29;2.80;;;1.55;;
5416;SDS011;2731;50.754;12.990;2022-07-03T08:42:57;1.60;;;1.50;;
5416;SDS011;2731;50.754;12.990;2022-07-03T08:45:23;2.55;;;1.55;;
5416;SDS011;2731;50.754;12.990;2022-07-03T08:47:48;3.85;;;1.50;;
5416;SDS011;2731;50.754;12.990;2022-07-03T08:50:15;1.70;;;1.40;;
5416;SDS011;2731;50.754;12.990;2022-07-03T08:52:40;2.22;;;1.70;;
5416;SDS011;2731;50.754;12.990;2022-07-03T08:55:06;1.58;;;1.40;;
5416;SDS011;2731;50.754;12.990;2022-07-03T08:57:32;1.65;;;1.42;;
5416;SDS011;2731;50.754;12.990;2022-07-03T08:59:58;1.63;;;1.52;;
5416;SDS011;2731;50.754;12.990;2022-07-03T09:02:25;1.60;;;1.50;;
5416;SDS011;2731;50.754;12.990;2022-07-03T09:04:51;1.55;;;1.40;;
5416;SDS011;2731;50.754;12.990;2022-07-03T09:07:17;4.88;;;2.15;;
5416;SDS011;2731;50.754;12.990;2022-07-03T09:09:43;1.90;;;1.80;;
5416;SDS011;2731;50.754;12.990;2022-07-03T09:12:09;2.10;;;1.90;;
5416;SDS011;2731;50.754;12.990;2022-07-03T09:14:35;2.45;;;2.05;;
5416;SDS011;2731;50.754;12.990;2022-07-03T09:17:00;1.83;;;1.73;;
5416;SDS011;2731;50.754;12.990;2022-07-03T09:22:24;1.83;;;1.63;;
5416;SDS011;2731;50.754;12.990;2022-07-03T09:24:50;1.60;;;1.42;;
5416;SDS011;2731;50.754;12.990;2022-07-03T09:27:17;1.50;;;1.40;;
5416;SDS011;2731;50.754;12.990;2022-07-03T09:29:59;1.73;;;1.42;;
5416;SDS011;2731;50.754;12.990;2022-07-03T09:32:25;1.70;;;1.60;;
5416;SDS011;2731;50.754;12.990;2022-07-03T09:37:35;1.67;;;1.55;;
5416;SDS011;2731;50.754;12.990;2022-07-03T09:40:01;1.30;;;1.10;;
5416;SDS011;2731;50.754;12.990;2022-07-03T09:42:27;1.40;;;1.30;;
5416;SDS011;2731;50.754;12.990;2022-07-03T09:44:52;1.77;;;1.40;;
5416;SDS011;2731;50.754;12.990;2022-07-03T09:47:20;1.75;;;1.38;;
5416;SDS011;2731;50.754;12.990;2022-07-03T09:57:35;4.28;;;1.23;;
5416;SDS011;2731;50.754;12.990;2022-07-03T10:00:08;1.45;;;1.35;;
5416;SDS011;2731;50.754;12.990;2022-07-03T10:02:33;2.58;;;1.20;;
5416;SDS011;2731;50.754;12.990;2022-07-03T10:05:12;2.08;;;1.50;;
5416;SDS011;2731;50.754;12.990;2022-07-03T10:07:53;1.90;;;1.10;;
5416;SDS011;2731;50.754;12.990;2022-07-03T10:10:20;2.55;;;1.00;;
5416;SDS011;2731;50.754;12.990;2022-07-03T10:12:48;1.10;;;1.00;;
5416;SDS011;2731;50.754;12.990;2022-07-03T10:15:14;1.35;;;1.20;;
5416;SDS011;2731;50.754;12.990;2022-07-03T10:17:40;1.50;;;1.00;;
5416;SDS011;2731;50.754;12.990;2022-07-03T10:20:06;1.08;;;0.90;;
5416;SDS011;2731;50.754;12.990;2022-07-03T10:22:31;3.03;;;1.27;;
5416;SDS011;2731;50.754;12.990;2022-07-03T10:25:00;2.92;;;0.98;;
5416;SDS011;2731;50.754;12.990;2022-07-03T10:27:26;0.80;;;0.80;;
5416;SDS011;2731;50.754;12.990;2022-07-03T10:29:54;1.45;;;1.08;;
5416;SDS011;2731;50.754;12.990;2022-07-03T10:32:20;1.20;;;1.10;;
5416;SDS011;2731;50.754;12.990;2022-07-03T10:34:45;1.48;;;1.30;;
5416;SDS011;2731;50.754;12.990;2022-07-03T10:37:11;1.48;;;1.00;;
5416;SDS011;2731;50.754;12.990;2022-07-03T10:42:13;1.63;;;1.52;;
5416;SDS011;2731;50.754;12.990;2022-07-03T10:45:07;0.90;;;0.85;;
5416;SDS011;2731;50.754;12.990;2022-07-03T10:47:46;2.22;;;1.30;;
5416;SDS011;2731;50.754;12.990;2022-07-03T10:50:17;1.15;;;1.02;;
5416;SDS011;2731;50.754;12.990;2022-07-03T10:52:43;2.55;;;1.60;;
5416;SDS011;2731;50.754;12.990;2022-07-03T10:55:10;2.03;;;1.02;;
5416;SDS011;2731;50.754;12.990;2022-07-03T10:57:36;0.90;;;0.90;;
5416;SDS011;2731;50.754;12.990;2022-07-03T11:00:23;1.05;;;0.98;;
5416;SDS011;2731;50.754;12.990;2022-07-03T11:02:48;1.10;;;1.00;;
5416;SDS011;2731;50.754;12.990;2022-07-03T11:05:14;1.00;;;0.90;;
5416;SDS011;2731;50.754;12.990;2022-07-03T11:25:41;1.05;;;0.90;;
5416;SDS011;2731;50.754;12.990;2022-07-03T11:28:08;1.02;;;0.80;;
5416;SDS011;2731;50.754;12.990;2022-07-03T11:30:33;2.20;;;0.95;;
5416;SDS011;2731;50.754;12.990;2022-07-03T11:32:59;0.88;;;0.80;;
5416;SDS011;2731;50.754;12.990;2022-07-03T11:38:10;1.10;;;1.00;;
5416;SDS011;2731;50.754;12.990;2022-07-03T11:40:35;1.35;;;0.90;;
5416;SDS011;2731;50.754;12.990;2022-07-03T11:43:01;0.93;;;0.93;;
5416;SDS011;2731;50.754;12.990;2022-07-03T11:45:29;0.80;;;0.80;;
5416;SDS011;2731;50.754;12.990;2022-07-03T11:47:55;1.25;;;1.15;;
5416;SDS011;2731;50.754;12.990;2022-07-03T11:50:20;1.15;;;1.00;;
5416;SDS011;2731;50.754;12.990;2022-07-03T11:52:45;0.70;;;0.70;;
5416;SDS011;2731;50.754;12.990;2022-07-03T11:55:11;2.53;;;1.00;;
5416;SDS011;2731;50.754;12.990;2022-07-03T11:57:36;1.45;;;1.00;;
5416;SDS011;2731;50.754;12.990;2022-07-03T12:00:05;1.80;;;1.00;;
5416;SDS011;2731;50.754;12.990;2022-07-03T12:02:30;1.45;;;0.90;;
5416;SDS011;2731;50.754;12.990;2022-07-03T12:04:55;2.70;;;1.00;;
5416;SDS011;2731;50.754;12.990;2022-07-03T12:07:20;1.43;;;0.80;;
5416;SDS011;2731;50.754;12.990;2022-07-03T12:09:49;1.13;;;1.00;;
5416;SDS011;2731;50.754;12.990;2022-07-03T12:12:14;1.45;;;1.00;;
5416;SDS011;2731;50.754;12.990;2022-07-03T12:14:44;1.20;;;1.00;;
5416;SDS011;2731;50.754;12.990;2022-07-03T12:17:14;2.33;;;0.95;;
5416;SDS011;2731;50.754;12.990;2022-07-03T12:19:52;2.90;;;0.98;;
5416;SDS011;2731;50.754;12.990;2022-07-03T12:22:21;1.10;;;0.95;;
5416;SDS011;2731;50.754;12.990;2022-07-03T12:24:54;1.33;;;0.93;;
5416;SDS011;2731;50.754;12.990;2022-07-03T12:27:19;1.23;;;0.73;;
5416;SDS011;2731;50.754;12.990;2022-07-03T12:29:45;1.10;;;0.70;;
5416;SDS011;2731;50.754;12.990;2022-07-03T12:32:10;1.23;;;1.00;;
5416;SDS011;2731;50.754;12.990;2022-07-03T12:34:36;2.50;;;1.00;;
5416;SDS011;2731;50.754;12.990;2022-07-03T12:37:01;0.80;;;0.80;;
5416;SDS011;2731;50.754;12.990;2022-07-03T12:42:15;4.68;;;1.33;;
5416;SDS011;2731;50.754;12.990;2022-07-03T12:44:41;1.48;;;1.02;;
5416;SDS011;2731;50.754;12.990;2022-07-03T12:47:06;1.40;;;1.27;;
5416;SDS011;2731;50.754;12.990;2022-07-03T12:49:31;0.90;;;0.90;;
5416;SDS011;2731;50.754;12.990;2022-07-03T12:51:58;2.40;;;1.02;;
5416;SDS011;2731;50.754;12.990;2022-07-03T12:54:34;1.02;;;1.00;;
5416;SDS011;2731;50.754;12.990;2022-07-03T12:57:06;1.65;;;0.82;;
5416;SDS011;2731;50.754;12.990;2022-07-03T13:00:09;1.10;;;1.00;;
5416;SDS011;2731;50.754;12.990;2022-07-03T13:02:35;1.20;;;1.10;;
5416;SDS011;2731;50.754;12.990;2022-07-03T13:05:01;1.67;;;0.90;;
5416;SDS011;2731;50.754;12.990;2022-07-03T13:07:29;3.63;;;1.00;;
5416;SDS011;2731;50.754;12.990;2022-07-03T13:09:55;2.60;;;1.10;;
5416;SDS011;2731;50.754;12.990;2022-07-03T13:12:23;1.95;;;1.02;;
5416;SDS011;2731;50.754;12.990;2022-07-03T13:14:58;1.95;;;1.20;;
5416;SDS011;2731;50.754;12.990;2022-07-03T13:20:11;1.17;;;1.08;;
5416;SDS011;2731;50.754;12.990;2022-07-03T13:22:37;1.65;;;1.20;;
5416;SDS011;2731;50.754;12.990;2022-07-03T13:25:02;1.88;;;1.13;;
5416;SDS011;2731;50.754;12.990;2022-07-03T13:27:27;2.05;;;1.10;;
5416;SDS011;2731;50.754;12.990;2022-07-03T13:29:52;1.05;;;0.90;;
5416;SDS011;2731;50.754;12.990;2022-07-03T13:32:19;5.83;;;1.10;;
5416;SDS011;2731;50.754;12.990;2022-07-03T13:34:44;2.00;;;0.80;;
5416;SDS011;2731;50.754;12.990;2022-07-03T13:37:09;0.80;;;0.80;;
5416;SDS011;2731;50.754;12.990;2022-07-03T13:39:34;2.57;;;1.43;;
5416;SDS011;2731;50.754;12.990;2022-07-03T13:42:00;1.70;;;1.07;;
5416;SDS011;2731;50.754;12.990;2022-07-03T13:44:25;0.90;;;0.90;;
5416;SDS011;2731;50.754;12.990;2022-07-03T13:46:50;0.82;;;0.80;;
5416;SDS011;2731;50.754;12.990;2022-07-03T13:49:16;1.57;;;1.00;;
5416;SDS011;2731;50.754;12.990;2022-07-03T13:51:41;0.98;;;0.88;;
5416;SDS011;2731;50.754;12.990;2022-07-03T13:54:07;3.07;;;0.90;;
5416;SDS011;2731;50.754;12.990;2022-07-03T13:56:34;1.67;;;0.93;;
5416;SDS011;2731;50.754;12.990;2022-07-03T13:58:59;0.87;;;0.87;;
5416;SDS011;2731;50.754;12.990;2022-07-03T14:01:25;0.95;;;0.75;;
5416;SDS011;2731;50.754;12.990;2022-07-03T14:03:50;1.33;;;0.83;;
5416;SDS011;2731;50.754;12.990;2022-07-03T14:06:15;1.37;;;0.90;;
5416;SDS011;2731;50.754;12.990;2022-07-03T14:08:40;1.27;;;0.80;;
5416;SDS011;2731;50.754;12.990;2022-07-03T14:11:06;2.90;;;0.83;;
5416;SDS011;2731;50.754;12.990;2022-07-03T14:13:31;0.95;;;0.63;;
5416;SDS011;2731;50.754;12.990;2022-07-03T14:15:56;1.00;;;0.90;;
5416;SDS011;2731;50.754;12.990;2022-07-03T14:18:22;1.07;;;0.73;;
5416;SDS011;2731;50.754;12.990;2022-07-03T14:20:47;1.47;;;0.83;;
5416;SDS011;2731;50.754;12.990;2022-07-03T14:23:12;1.60;;;1.10;;
5416;SDS011;2731;50.754;12.990;2022-07-03T14:25:38;0.70;;;0.63;;
5416;SDS011;2731;50.754;12.990;2022-07-03T14:28:03;2.20;;;0.80;;
5416;SDS011;2731;50.754;12.990;2022-07-03T14:30:47;1.08;;;0.70;;
5416;SDS011;2731;50.754;12.990;2022-07-03T14:33:31;0.73;;;0.73;;
5416;SDS011;2731;50.754;12.990;2022-07-03T14:35:56;1.87;;;0.77;;
5416;SDS011;2731;50.754;12.990;2022-07-03T14:38:22;0.93;;;0.70;;
5416;SDS011;2731;50.754;12.990;2022-07-03T14:40:47;0.73;;;0.73;;
5416;SDS011;2731;50.754;12.990;2022-07-03T14:43:12;0.70;;;0.70;;
5416;SDS011;2731;50.754;12.990;2022-07-03T14:45:38;2.08;;;0.80;;
5416;SDS011;2731;50.754;12.990;2022-07-03T14:48:03;2.07;;;0.90;;
5416;SDS011;2731;50.754;12.990;2022-07-03T14:50:28;0.63;;;0.63;;
5416;SDS011;2731;50.754;12.990;2022-07-03T14:52:54;0.83;;;0.70;;
5416;SDS011;2731;50.754;12.990;2022-07-03T14:55:20;3.30;;;0.93;;
5416;SDS011;2731;50.754;12.990;2022-07-03T14:57:59;1.77;;;0.40;;
5416;SDS011;2731;50.754;12.990;2022-07-03T15:00:28;1.27;;;0.90;;
5416;SDS011;2731;50.754;12.990;2022-07-03T15:05:27;1.83;;;0.70;;
5416;SDS011;2731;50.754;12.990;2022-07-03T15:10:25;0.93;;;0.70;;
5416;SDS011;2731;50.754;12.990;2022-07-03T15:12:52;0.80;;;0.80;;
5416;SDS011;2731;50.754;12.990;2022-07-03T15:15:18;3.22;;;0.88;;
5416;SDS011;2731;50.754;12.990;2022-07-03T15:17:47;0.95;;;0.80;;
5416;SDS011;2731;50.754;12.990;2022-07-03T15:20:14;0.55;;;0.55;;
5416;SDS011;2731;50.754;12.990;2022-07-03T15:22:42;2.15;;;0.80;;
5416;SDS011;2731;50.754;12.990;2022-07-03T15:25:09;0.82;;;0.80;;
5416;SDS011;2731;50.754;12.990;2022-07-03T15:27:35;0.73;;;0.65;;
5416;SDS011;2731;50.754;12.990;2022-07-03T15:30:01;1.48;;;0.82;;
5416;SDS011;2731;50.754;12.990;2022-07-03T15:32:26;1.02;;;0.77;;
5416;SDS011;2731;50.754;12.990;2022-07-03T15:34:51;0.80;;;0.73;;
5416;SDS011;2731;50.754;12.990;2022-07-03T15:40:04;1.50;;;0.80;;
5416;SDS011;2731;50.754;12.990;2022-07-03T15:50:16;1.02;;;1.00;;
5416;SDS011;2731;50.754;12.990;2022-07-03T15:52:44;1.10;;;0.98;;
5416;SDS011;2731;50.754;12.990;2022-07-03T15:55:10;1.05;;;0.80;;
5416;SDS011;2731;50.754;12.990;2022-07-03T16:02:36;2.15;;;0.70;;
5416;SDS011;2731;50.754;12.990;2022-07-03T16:05:06;1.20;;;0.60;;
5416;SDS011;2731;50.754;12.990;2022-07-03T16:07:35;1.88;;;1.02;;
5416;SDS011;2731;50.754;12.990;2022-07-03T16:10:02;2.33;;;0.75;;
5416;SDS011;2731;50.754;12.990;2022-07-03T16:12:28;0.80;;;0.80;;
5416;SDS011;2731;50.754;12.990;2022-07-03T16:14:53;0.75;;;0.75;;
5416;SDS011;2731;50.754;12.990;2022-07-03T16:17:20;1.58;;;0.70;;
5416;SDS011;2731;50.754;12.990;2022-07-03T16:19:46;1.77;;;0.65;;
5416;SDS011;2731;50.754;12.990;2022-07-03T16:22:12;1.33;;;0.75;;
5416;SDS011;2731;50.754;12.990;2022-07-03T16:24:38;0.68;;;0.68;;
5416;SDS011;2731;50.754;12.990;2022-07-03T16:27:03;1.45;;;0.77;;